Time;durP1;ratioP1;P1;durP2;ratioP2;P2;SDS_P1;SDS_P2;PMS_P1;PMS_P2;Temp;Humidity;BMP_temperature;BMP_pressure;BME280_temperature;BME280_humidity;BME280_pressure;Samples;Min_cycle;Max_cycle;Signal;HPM_P1;HPM_P2
2023/03/14 00:01:16;;;;;;;;;1.50;0.00;;;;;-145.09;100.00;59365.97;5136426;27;8892;-82
2023/03/14 00:03:41;;;;;;;;;0.75;0.00;;;;;-145.09;100.00;59365.97;5154863;27;8762;-83
2023/03/14 00:06:08;;;;;;;;;4.00;0.75;;;;;-145.09;100.00;59365.97;5154739;27;8922;-83
2023/03/14 00:08:33;;;;;;;;;1.75;0.00;;;;;-145.09;100.00;59365.97;5136369;27;8780;-83
2023/03/14 00:11:13;;;;;;;;;0.00;0.00;;;;;-145.09;100.00;59365.97;5153089;27;9085;-82
2023/03/14 00:13:39;;;;;;;;;0.00;0.00;;;;;-145.09;100.00;59365.97;5136121;27;8784;-83
2023/03/14 00:16:06;;;;;;;;;0.75;0.00;;;;;-145.09;100.00;59365.97;5154401;27;8802;-83
2023/03/14 00:18:32;;;;;;;;;0.75;0.00;;;;;-145.09;100.00;59365.97;5154599;27;8912;-83
2023/03/14 00:20:59;;;;;;;;;0.00;0.00;;;;;-145.09;100.00;59365.97;5154516;27;8779;-83
2023/03/14 00:23:24;;;;;;;;;0.00;0.00;;;;;-145.09;100.00;59365.97;5154575;27;8772;-83
2023/03/14 00:25:49;;;;;;;;;0.00;0.00;;;;;-145.09;100.00;59365.97;5135682;27;8778;-83
2023/03/14 00:28:15;;;;;;;;;0.00;0.00;;;;;-145.09;100.00;59365.97;5153742;27;29106;-83
2023/03/14 00:30:40;;;;;;;;;0.00;0.00;;;;;-145.09;100.00;59365.97;5135267;27;24395;-83
2023/03/14 00:33:05;;;;;;;;;0.00;0.00;;;;;-145.09;100.00;59365.97;5154070;27;20786;-81
2023/03/14 00:35:31;;;;;;;;;1.00;0.00;;;;;-145.09;100.00;59365.97;5153627;27;28485;-82
2023/03/14 00:37:56;;;;;;;;;0.00;0.00;;;;;-145.09;100.00;59365.97;5153722;27;22866;-82
2023/03/14 00:40:21;;;;;;;;;0.00;0.00;;;;;-145.09;100.00;59365.97;5117444;27;26255;-83
2023/03/14 00:42:47;;;;;;;;;0.00;0.00;;;;;-145.09;100.00;59365.97;5134546;27;31774;-83
2023/03/14 00:45:12;;;;;;;;;0.00;0.00;;;;;-145.09;100.00;59365.97;5153417;27;25798;-83
2023/03/14 00:47:37;;;;;;;;;2.00;0.00;;;;;-145.09;100.00;59365.97;5154089;27;9419;-83
2023/03/14 00:50:03;;;;;;;;;1.50;0.00;;;;;-145.09;100.00;59365.97;5153977;27;8784;-83
2023/03/14 00:52:28;;;;;;;;;2.00;0.00;;;;;-145.09;100.00;59365.97;5153834;27;8799;-82
2023/03/14 00:54:54;;;;;;;;;0.00;0.00;;;;;-145.09;100.00;59365.97;5152552;27;30297;-83
2023/03/14 00:57:19;;;;;;;;;2.00;0.00;;;;;-145.09;100.00;59365.97;5153034;27;30087;-82
2023/03/14 00:59:44;;;;;;;;;0.25;0.00;;;;;-145.09;100.00;59365.97;5153368;27;21968;-83
2023/03/14 01:02:10;;;;;;;;;2.75;0.00;;;;;-145.09;100.00;59365.97;5153182;27;27070;-83
2023/03/14 01:04:37;;;;;;;;;3.50;0.00;;;;;-145.09;100.00;59365.97;5118221;27;8817;-83
2023/03/14 01:07:02;;;;;;;;;0.00;0.00;;;;;-145.09;100.00;59365.97;5153893;27;8957;-83
2023/03/14 01:09:28;;;;;;;;;0.25;0.00;;;;;-145.09;100.00;59365.97;5152846;27;8888;-83
2023/03/14 01:11:53;;;;;;;;;0.75;0.00;;;;;-145.09;100.00;59365.97;5153400;27;18038;-83
2023/03/14 01:14:19;;;;;;;;;3.00;1.00;;;;;-145.09;100.00;59365.97;5135035;27;8809;-83
2023/03/14 01:16:44;;;;;;;;;0.00;0.00;;;;;-145.09;100.00;59365.97;5134743;27;9486;-83
2023/03/14 01:19:09;;;;;;;;;0.00;0.00;;;;;-145.09;100.00;59365.97;5134999;27;13922;-83
2023/03/14 01:21:35;;;;;;;;;0.00;0.00;;;;;-145.09;100.00;59365.97;5135251;27;8893;-83
2023/03/14 01:24:03;;;;;;;;;0.00;0.00;;;;;-145.09;100.00;59365.97;5151999;27;8778;-81
2023/03/14 01:26:31;;;;;;;;;0.00;0.00;;;;;-145.09;100.00;59365.97;5153400;27;8782;-83
2023/03/14 01:28:57;;;;;;;;;0.00;0.00;;;;;-145.09;100.00;59365.97;5134963;27;8786;-83
2023/03/14 01:31:23;;;;;;;;;0.50;0.00;;;;;-145.09;100.00;59365.97;5135013;27;9640;-83
2023/03/14 01:33:48;;;;;;;;;0.25;0.00;;;;;-145.09;100.00;59365.97;5135058;27;8788;-82
2023/03/14 01:36:14;;;;;;;;;5.00;0.00;;;;;-145.09;100.00;59365.97;5134328;27;17477;-83
2023/03/14 01:38:39;;;;;;;;;0.00;0.00;;;;;-145.09;100.00;59365.97;5134536;27;8789;-82
2023/03/14 01:41:06;;;;;;;;;0.25;0.00;;;;;-145.09;100.00;59365.97;5134882;27;8794;-83
2023/03/14 01:43:31;;;;;;;;;0.00;0.00;;;;;-145.09;100.00;59365.97;5138092;27;8800;-84
2023/03/14 01:46:06;;;;;;;;;0.00;0.00;;;;;-145.09;100.00;59365.97;5131764;27;30323;-81
2023/03/14 01:48:54;;;;;;;;;0.50;0.00;;;;;-145.09;100.00;59365.97;5132672;27;8803;-83
2023/03/14 01:51:38;;;;;;;;;0.00;0.00;;;;;-145.09;100.00;59365.97;5122023;27;8811;-84
2023/03/14 01:54:25;;;;;;;;;1.25;0.00;;;;;-145.09;100.00;59365.97;5145187;27;8808;-84
2023/03/14 01:57:01;;;;;;;;;5.00;0.00;;;;;-145.09;100.00;59365.97;5134308;27;8847;-83
2023/03/14 01:59:28;;;;;;;;;0.00;0.00;;;;;-145.09;100.00;59365.97;5134535;27;8886;-82
2023/03/14 02:01:55;;;;;;;;;0.00;0.00;;;;;-145.09;100.00;59365.97;5134691;27;8781;-84
2023/03/14 02:04:20;;;;;;;;;2.00;0.25;;;;;-145.09;100.00;59365.97;5134602;27;8842;-83
2023/03/14 02:06:56;;;;;;;;;0.00;0.00;;;;;-145.09;100.00;59365.97;5152631;27;8818;-83
2023/03/14 02:09:22;;;;;;;;;1.50;0.00;;;;;-145.09;100.00;59365.97;5151869;27;8885;-84
2023/03/14 02:11:47;;;;;;;;;0.00;0.00;;;;;-145.09;100.00;59365.97;5134696;27;8838;-83
2023/03/14 02:14:25;;;;;;;;;0.00;0.00;;;;;-145.09;100.00;59365.97;5134299;27;13061;-83
2023/03/14 02:16:50;;;;;;;;;0.00;0.00;;;;;-145.09;100.00;59365.97;5151652;27;9573;-83
2023/03/14 02:19:24;;;;;;;;;0.75;0.00;;;;;-145.09;100.00;59365.97;5152769;27;8806;-83
2023/03/14 02:21:54;;;;;;;;;1.00;0.00;;;;;-145.09;100.00;59365.97;5137310;27;8813;-84
2023/03/14 02:24:32;;;;;;;;;0.00;0.00;;;;;-145.09;100.00;59365.97;5156585;27;8812;-83
2023/03/14 02:27:17;;;;;;;;;0.00;0.00;;;;;-145.09;100.00;59365.97;5138013;27;8812;-84
2023/03/14 02:29:49;;;;;;;;;0.75;0.75;;;;;-145.09;100.00;59365.97;5137835;27;8754;-83
2023/03/14 02:32:16;;;;;;;;;0.00;0.00;;;;;-145.09;100.00;59365.97;5137952;27;8804;-83
2023/03/14 02:34:44;;;;;;;;;0.25;0.00;;;;;-145.09;100.00;59365.97;5137256;27;8857;-83
2023/03/14 02:37:10;;;;;;;;;1.00;0.00;;;;;-145.09;100.00;59365.97;5120528;27;8794;-81
2023/03/14 02:39:38;;;;;;;;;0.00;0.00;;;;;-145.09;100.00;59365.97;5120370;27;8785;-84
2023/03/14 02:42:04;;;;;;;;;0.00;0.00;;;;;-145.09;100.00;59365.97;5134904;27;8785;-83
2023/03/14 02:44:29;;;;;;;;;0.00;0.00;;;;;-145.09;100.00;59365.97;5135306;27;8804;-84
2023/03/14 02:46:54;;;;;;;;;0.00;0.00;;;;;-145.09;100.00;59365.97;5133966;27;11172;-84
2023/03/14 02:49:20;;;;;;;;;0.00;0.00;;;;;-145.09;100.00;59365.97;5134009;27;8823;-83
2023/03/14 02:51:46;;;;;;;;;1.50;0.00;;;;;-145.09;100.00;59365.97;5133375;27;26679;-84
2023/03/14 02:54:11;;;;;;;;;0.00;0.00;;;;;-145.09;100.00;59365.97;5133876;27;9553;-83
2023/03/14 02:56:37;;;;;;;;;1.00;0.00;;;;;-145.09;100.00;59365.97;5135007;27;8824;-83
2023/03/14 02:59:06;;;;;;;;;0.75;0.00;;;;;-145.09;100.00;59365.97;5133756;27;8926;-83
2023/03/14 03:01:31;;;;;;;;;0.00;0.00;;;;;-145.09;100.00;59365.97;5135181;27;8780;-84
2023/03/14 03:03:57;;;;;;;;;0.75;0.00;;;;;-145.09;100.00;59365.97;5133407;27;8803;-82
2023/03/14 03:06:22;;;;;;;;;0.75;0.00;;;;;-145.09;100.00;59365.97;5134934;27;8914;-83
2023/03/14 03:08:47;;;;;;;;;0.00;0.00;;;;;-145.09;100.00;59365.97;5134775;27;8800;-83
2023/03/14 03:11:13;;;;;;;;;0.00;0.00;;;;;-145.09;100.00;59365.97;5134298;27;27293;-84
2023/03/14 03:13:38;;;;;;;;;0.00;0.00;;;;;-145.09;100.00;59365.97;5133755;27;8939;-84
2023/03/14 03:16:04;;;;;;;;;0.00;0.00;;;;;-145.09;100.00;59365.97;5132947;27;22422;-83
2023/03/14 03:18:30;;;;;;;;;0.00;0.00;;;;;-145.09;100.00;59365.97;5133201;27;8811;-83
2023/03/14 03:20:55;;;;;;;;;1.00;0.00;;;;;-145.09;100.00;59365.97;5134851;27;9570;-84
2023/03/14 03:23:21;;;;;;;;;2.00;0.00;;;;;-145.09;100.00;59365.97;5133431;27;8804;-84
2023/03/14 03:25:50;;;;;;;;;0.00;0.00;;;;;-145.09;100.00;59365.97;5134843;27;8808;-84
2023/03/14 03:28:15;;;;;;;;;0.00;0.00;;;;;-145.09;100.00;59365.97;5134880;27;8802;-84
2023/03/14 03:30:41;;;;;;;;;0.00;0.00;;;;;-145.09;100.00;59365.97;5132561;27;22430;-84
2023/03/14 03:33:07;;;;;;;;;0.00;0.00;;;;;-145.09;100.00;59365.97;5134385;27;8780;-84
2023/03/14 03:35:32;;;;;;;;;0.00;0.00;;;;;-145.09;100.00;59365.97;5133287;27;8838;-83
2023/03/14 03:37:58;;;;;;;;;0.00;0.00;;;;;-145.09;100.00;59365.97;5133304;27;8923;-83
2023/03/14 03:40:23;;;;;;;;;0.00;0.00;;;;;-145.09;100.00;59365.97;5134565;27;8819;-84
2023/03/14 03:42:48;;;;;;;;;0.00;0.00;;;;;-145.09;100.00;59365.97;5133710;27;29480;-84
2023/03/14 03:45:14;;;;;;;;;0.50;0.00;;;;;-145.09;100.00;59365.97;5133989;27;20426;-85
2023/03/14 03:47:39;;;;;;;;;0.00;0.00;;;;;-145.09;100.00;59365.97;5134095;27;8800;-84
2023/03/14 03:50:05;;;;;;;;;1.00;0.00;;;;;-145.09;100.00;59365.97;5149693;27;26891;-84
2023/03/14 03:52:30;;;;;;;;;1.00;0.00;;;;;-145.09;100.00;59365.97;5133027;27;8800;-83
2023/03/14 03:54:56;;;;;;;;;0.00;0.00;;;;;-145.09;100.00;59365.97;5132092;27;31894;-84
2023/03/14 03:57:21;;;;;;;;;0.00;0.00;;;;;-145.09;100.00;59365.97;5114919;27;25815;-84
2023/03/14 03:59:46;;;;;;;;;1.00;0.00;;;;;-145.09;100.00;59365.97;5133567;27;26619;-83
2023/03/14 04:02:12;;;;;;;;;0.00;0.00;;;;;-145.09;100.00;59365.97;5133744;27;8796;-84
2023/03/14 04:04:38;;;;;;;;;0.00;0.00;;;;;-145.09;100.00;59365.97;5132640;27;19343;-84
2023/03/14 04:07:04;;;;;;;;;0.00;0.00;;;;;-145.09;100.00;59365.97;5134218;27;8800;-84
2023/03/14 04:09:30;;;;;;;;;0.00;0.00;;;;;-145.09;100.00;59365.97;5132850;27;8796;-84
2023/03/14 04:11:55;;;;;;;;;2.00;0.00;;;;;-145.09;100.00;59365.97;5134271;27;8781;-85
2023/03/14 04:14:21;;;;;;;;;0.00;0.00;;;;;-145.09;100.00;59365.97;5132770;27;9568;-84
2023/03/14 04:16:46;;;;;;;;;0.00;0.00;;;;;-145.09;100.00;59365.97;5133472;27;8925;-84
2023/03/14 04:19:12;;;;;;;;;1.00;0.00;;;;;-145.09;100.00;59365.97;5133448;27;22426;-84
2023/03/14 04:21:40;;;;;;;;;0.00;0.00;;;;;-145.09;100.00;59365.97;5114614;27;28316;-83
2023/03/14 04:24:06;;;;;;;;;0.00;0.00;;;;;-145.09;100.00;59365.97;5133791;27;8857;-84
2023/03/14 04:26:31;;;;;;;;;0.00;0.00;;;;;-145.09;100.00;59365.97;5149774;27;8824;-84
2023/03/14 04:28:56;;;;;;;;;0.00;0.00;;;;;-145.09;100.00;59365.97;5132546;27;8832;-84
2023/03/14 04:31:22;;;;;;;;;0.00;0.00;;;;;-145.09;100.00;59365.97;5149348;27;8812;-84
2023/03/14 04:33:47;;;;;;;;;0.00;0.00;;;;;-145.09;100.00;59365.97;5131713;27;30267;-85
2023/03/14 04:36:13;;;;;;;;;0.00;0.00;;;;;-145.09;100.00;59365.97;5149598;27;8846;-83
2023/03/14 04:38:39;;;;;;;;;0.00;0.00;;;;;-145.09;100.00;59365.97;5132301;27;8783;-84
2023/03/14 04:41:04;;;;;;;;;0.00;0.00;;;;;-145.09;100.00;59365.97;5132304;27;8816;-84
2023/03/14 04:43:30;;;;;;;;;0.00;0.00;;;;;-145.09;100.00;59365.97;5131099;27;8951;-83
2023/03/14 04:45:56;;;;;;;;;0.00;0.00;;;;;-145.09;100.00;59365.97;5131227;27;23507;-82
2023/03/14 04:48:22;;;;;;;;;0.00;0.00;;;;;-145.09;100.00;59365.97;5132115;27;8857;-83
2023/03/14 04:50:48;;;;;;;;;0.00;0.00;;;;;-145.09;100.00;59365.97;5149227;27;8808;-83
2023/03/14 04:53:14;;;;;;;;;0.00;0.00;;;;;-145.09;100.00;59365.97;5138777;27;8875;-84
2023/03/14 04:55:40;;;;;;;;;1.25;0.00;;;;;-145.09;100.00;59365.97;5153916;27;8821;-84
2023/03/14 04:58:05;;;;;;;;;2.00;0.00;;;;;-145.09;100.00;59365.97;5131041;27;24973;-82
2023/03/14 05:00:31;;;;;;;;;0.50;0.50;;;;;-145.09;100.00;59365.97;5131166;27;27441;-82
2023/03/14 05:02:56;;;;;;;;;1.50;0.00;;;;;-145.09;100.00;59365.97;5114870;27;8929;-85
2023/03/14 05:05:21;;;;;;;;;0.00;0.00;;;;;-145.09;100.00;59365.97;5132628;27;22378;-85
2023/03/14 05:07:47;;;;;;;;;0.75;0.75;;;;;-145.09;100.00;59365.97;5131977;27;8885;-83
2023/03/14 05:10:12;;;;;;;;;0.00;0.00;;;;;-145.09;100.00;59365.97;5133145;27;8804;-82
2023/03/14 05:12:37;;;;;;;;;1.00;1.00;;;;;-145.09;100.00;59365.97;5131666;27;9452;-82
2023/03/14 05:15:04;;;;;;;;;3.00;2.00;;;;;-145.09;100.00;59365.97;5130777;27;27360;-83
2023/03/14 05:17:30;;;;;;;;;7.00;1.00;;;;;-145.09;100.00;59365.97;5131615;27;8797;-85
2023/03/14 05:19:55;;;;;;;;;1.50;0.75;;;;;-145.09;100.00;59365.97;5133093;27;8820;-83
2023/03/14 05:22:20;;;;;;;;;0.75;0.75;;;;;-145.09;100.00;59365.97;5114391;27;9456;-83
2023/03/14 05:24:46;;;;;;;;;2.25;0.75;;;;;-145.09;100.00;59365.97;5130819;27;28074;-84
2023/03/14 05:27:11;;;;;;;;;0.75;0.75;;;;;-145.09;100.00;59365.97;5132369;27;17444;-85
2023/03/14 05:29:36;;;;;;;;;1.25;0.25;;;;;-145.09;100.00;59365.97;5130767;27;18509;-84
2023/03/14 05:32:02;;;;;;;;;2.75;1.00;;;;;-145.09;100.00;59365.97;5130671;27;33112;-83
2023/03/14 05:34:27;;;;;;;;;1.25;0.00;;;;;-145.09;100.00;59365.97;5132803;27;9541;-84
2023/03/14 05:36:52;;;;;;;;;3.00;1.00;;;;;-145.09;100.00;59365.97;5130837;27;24588;-84
2023/03/14 05:39:18;;;;;;;;;0.25;0.00;;;;;-145.09;100.00;59365.97;5131700;27;8867;-84
2023/03/14 05:41:43;;;;;;;;;2.75;1.25;;;;;-145.09;100.00;59365.97;5132372;27;16081;-85
2023/03/14 05:44:09;;;;;;;;;3.50;1.00;;;;;-145.09;100.00;59365.97;5106639;27;26374;-82
2023/03/14 05:46:34;;;;;;;;;2.00;0.00;;;;;-145.09;100.00;59365.97;5091321;28;23093;-85
2023/03/14 05:48:59;;;;;;;;;1.25;0.25;;;;;-145.09;100.00;59365.97;5091374;28;19039;-85
2023/03/14 05:51:25;;;;;;;;;3.00;1.50;;;;;-145.09;100.00;59365.97;5090445;28;8793;-84
2023/03/14 05:53:50;;;;;;;;;1.00;1.00;;;;;-145.09;100.00;59365.97;5113535;27;8793;-85
2023/03/14 05:56:16;;;;;;;;;2.75;2.00;;;;;-145.09;100.00;59365.97;5138214;27;8854;-83
2023/03/14 05:58:41;;;;;;;;;8.00;2.00;;;;;-145.09;100.00;59365.97;5154905;27;20729;-87
2023/03/14 06:01:07;;;;;;;;;4.25;1.00;;;;;-145.09;100.00;59365.97;5141509;27;18044;-85
2023/03/14 06:03:35;;;;;;;;;2.00;1.00;;;;;-145.09;100.00;59365.97;5160153;27;8793;-85
2023/03/14 06:06:00;;;;;;;;;0.75;0.75;;;;;-145.09;100.00;59365.97;5141430;27;8800;-85
2023/03/14 06:08:26;;;;;;;;;2.00;1.25;;;;;-145.09;100.00;59365.97;5141820;27;8794;-85
2023/03/14 06:10:52;;;;;;;;;1.00;1.00;;;;;-145.09;100.00;59365.97;5160314;27;8786;-85
2023/03/14 06:13:17;;;;;;;;;2.25;0.50;;;;;-145.09;100.00;59365.97;5142011;27;8780;-86
2023/03/14 06:15:43;;;;;;;;;0.50;0.50;;;;;-145.09;100.00;59365.97;5124220;27;8801;-86
2023/03/14 06:18:09;;;;;;;;;1.75;1.75;;;;;-145.09;100.00;59365.97;5141452;27;8782;-86
2023/03/14 06:20:40;;;;;;;;;1.50;1.50;;;;;-145.09;100.00;59365.97;5140715;27;28356;-85
2023/03/14 06:23:06;;;;;;;;;3.75;1.25;;;;;-145.09;100.00;59365.97;5141924;27;8778;-86
2023/03/14 06:25:32;;;;;;;;;1.50;1.00;;;;;-145.09;100.00;59365.97;5141482;27;8770;-86
2023/03/14 06:27:58;;;;;;;;;5.25;1.00;;;;;-145.09;100.00;59365.97;5140991;27;8766;-86
2023/03/14 06:30:23;;;;;;;;;3.50;1.25;;;;;-145.09;100.00;59365.97;5141182;27;8778;-85
2023/03/14 06:32:49;;;;;;;;;6.00;2.00;;;;;-145.09;100.00;59365.97;5159679;27;8783;-88
2023/03/14 06:35:14;;;;;;;;;2.75;1.25;;;;;-145.09;100.00;59365.97;5123623;27;16401;-86
2023/03/14 06:37:39;;;;;;;;;5.75;1.00;;;;;-145.09;100.00;59365.97;5159856;27;8808;-87
2023/03/14 06:40:07;;;;;;;;;1.50;1.50;;;;;-145.09;100.00;59365.97;5124180;27;8810;-87
2023/03/14 06:42:32;;;;;;;;;1.50;1.50;;;;;-145.09;100.00;59365.97;5137506;27;8809;-87
2023/03/14 06:44:58;;;;;;;;;4.00;2.75;;;;;-145.09;100.00;59365.97;5103221;27;8798;-83
2023/03/14 06:47:23;;;;;;;;;3.00;2.00;;;;;-145.09;100.00;59365.97;5138597;27;8783;-82
2023/03/14 06:49:48;;;;;;;;;1.00;1.00;;;;;-145.09;100.00;59365.97;5138258;27;20837;-84
2023/03/14 06:52:14;;;;;;;;;1.25;1.25;;;;;-145.09;100.00;59365.97;5137830;27;28041;-84
2023/03/14 06:54:39;;;;;;;;;2.75;2.00;;;;;-145.09;100.00;59365.97;5156352;27;8794;-83
2023/03/14 06:57:04;;;;;;;;;3.00;1.00;;;;;-145.09;100.00;59365.97;5158833;27;8832;-84
2023/03/14 06:59:30;;;;;;;;;1.25;1.25;;;;;-145.09;100.00;59365.97;5158835;27;27032;-83
2023/03/14 07:01:55;;;;;;;;;5.25;2.00;;;;;-145.09;100.00;59365.97;5140072;27;22039;-82
2023/03/14 07:04:20;;;;;;;;;1.50;0.00;;;;;-145.09;100.00;59365.97;5140339;27;21203;-84
2023/03/14 07:06:47;;;;;;;;;4.75;1.00;;;;;-145.09;100.00;59365.97;5137576;27;10449;-85
2023/03/14 07:09:13;;;;;;;;;4.25;2.25;;;;;-145.09;100.00;59365.97;5137491;27;8770;-85
2023/03/14 07:11:38;;;;;;;;;2.00;1.00;;;;;-145.09;100.00;59365.97;5155973;27;9526;-86
2023/03/14 07:14:04;;;;;;;;;1.00;0.00;;;;;-145.09;100.00;59365.97;5137389;27;8789;-85
2023/03/14 07:16:32;;;;;;;;;2.00;0.00;;;;;-145.09;100.00;59365.97;5136695;27;23119;-85
2023/03/14 07:18:58;;;;;;;;;0.00;0.00;;;;;-145.09;100.00;59365.97;5138123;27;8836;-91
2023/03/14 07:21:24;;;;;;;;;1.00;1.00;;;;;-145.09;100.00;59365.97;5137944;27;8804;-86
2023/03/14 07:23:49;;;;;;;;;0.00;0.00;;;;;-145.09;100.00;59365.97;5137287;27;8778;-83
2023/03/14 07:26:14;;;;;;;;;1.75;0.00;;;;;-145.09;100.00;59365.97;5154972;27;27478;-86
2023/03/14 07:28:40;;;;;;;;;2.75;1.00;;;;;-145.09;100.00;59365.97;5137146;27;14570;-87
2023/03/14 07:31:05;;;;;;;;;4.25;0.75;;;;;-145.09;100.00;59365.97;5136538;27;26637;-86
2023/03/14 07:33:31;;;;;;;;;0.00;0.00;;;;;-145.09;100.00;59365.97;5137220;27;8805;-86
2023/03/14 07:35:56;;;;;;;;;0.00;0.00;;;;;-145.09;100.00;59365.97;5136057;27;8920;-86
2023/03/14 07:38:21;;;;;;;;;1.50;1.00;;;;;-145.09;100.00;59365.97;5133389;27;16312;-84
2023/03/14 07:40:47;;;;;;;;;1.00;0.50;;;;;-145.09;100.00;59365.97;5152870;27;31820;-84
2023/03/14 07:43:12;;;;;;;;;1.50;0.00;;;;;-145.09;100.00;59365.97;5134524;27;25449;-85
2023/03/14 07:45:37;;;;;;;;;1.00;0.00;;;;;-145.09;100.00;59365.97;5154925;27;8836;-84
2023/03/14 07:48:03;;;;;;;;;0.00;0.00;;;;;-145.09;100.00;59365.97;5147238;27;25250;-84
2023/03/14 07:50:28;;;;;;;;;0.75;0.00;;;;;-145.09;100.00;59365.97;5152082;27;8818;-85
2023/03/14 07:52:54;;;;;;;;;0.75;0.75;;;;;-145.09;100.00;59365.97;5135022;27;14178;-85
2023/03/14 07:55:20;;;;;;;;;0.75;0.75;;;;;-145.09;100.00;59365.97;5134179;27;8806;-86
2023/03/14 07:57:45;;;;;;;;;0.50;0.00;;;;;-145.09;100.00;59365.97;5130856;27;8816;-83
2023/03/14 08:00:11;;;;;;;;;0.00;0.00;;;;;-145.09;100.00;59365.97;5154770;27;8780;-84
2023/03/14 08:02:37;;;;;;;;;1.75;1.00;;;;;-145.09;100.00;59365.97;5136663;27;8784;-86
2023/03/14 08:05:03;;;;;;;;;0.25;0.00;;;;;-145.09;100.00;59365.97;5153895;27;8804;-86
2023/03/14 08:07:29;;;;;;;;;1.25;0.50;;;;;-145.09;100.00;59365.97;5154199;27;8807;-84
2023/03/14 08:09:54;;;;;;;;;0.00;0.00;;;;;-145.09;100.00;59365.97;5125915;27;15299;-82
2023/03/14 08:12:19;;;;;;;;;0.50;0.00;;;;;-145.09;100.00;59365.97;5125416;27;20057;-83
2023/03/14 08:14:45;;;;;;;;;2.00;0.00;;;;;-145.09;100.00;59365.97;5136214;27;8862;-83
2023/03/14 08:17:10;;;;;;;;;0.00;0.00;;;;;-145.09;100.00;59365.97;5127037;27;8832;-83
2023/03/14 08:19:35;;;;;;;;;3.00;0.25;;;;;-145.09;100.00;59365.97;5151423;27;25804;-82
2023/03/14 08:22:01;;;;;;;;;2.50;0.00;;;;;-145.09;100.00;59365.97;5142717;27;30410;-83
2023/03/14 08:24:26;;;;;;;;;0.25;0.00;;;;;-145.09;100.00;59365.97;5129987;27;8892;-84
2023/03/14 08:26:52;;;;;;;;;4.00;0.50;;;;;-145.09;100.00;59365.97;5127342;27;8937;-82
2023/03/14 08:29:17;;;;;;;;;1.25;0.50;;;;;-145.09;100.00;59365.97;5134518;27;31428;-82
2023/03/14 08:31:44;;;;;;;;;1.00;1.00;;;;;-145.09;100.00;59365.97;5148275;27;24986;-83
2023/03/14 08:34:09;;;;;;;;;0.75;0.25;;;;;-145.09;100.00;59365.97;5151945;27;8796;-83
2023/03/14 08:36:34;;;;;;;;;1.75;1.75;;;;;-145.09;100.00;59365.97;5134905;27;11733;-83
2023/03/14 08:39:00;;;;;;;;;0.00;0.00;;;;;-145.09;100.00;59365.97;5151737;27;31630;-84
2023/03/14 08:41:25;;;;;;;;;5.00;0.00;;;;;-145.09;100.00;59365.97;5153082;27;9699;-83
2023/03/14 08:43:50;;;;;;;;;2.00;0.00;;;;;-145.09;100.00;59365.97;5152652;27;21482;-82
2023/03/14 08:46:16;;;;;;;;;2.00;0.00;;;;;-145.09;100.00;59365.97;5119974;27;8828;-83
2023/03/14 08:48:41;;;;;;;;;2.00;0.50;;;;;-145.09;100.00;59365.97;5152853;27;29714;-83
2023/03/14 08:51:12;;;;;;;;;0.00;0.00;;;;;-145.09;100.00;59365.97;5144550;27;11894;-83
2023/03/14 08:53:38;;;;;;;;;3.00;0.00;;;;;-145.09;100.00;59365.97;5151906;27;8800;-84
2023/03/14 08:56:05;;;;;;;;;2.00;0.50;;;;;-145.09;100.00;59365.97;5152487;27;8804;-83
2023/03/14 08:58:31;;;;;;;;;3.50;0.75;;;;;-145.09;100.00;59365.97;5145091;27;8824;-82
2023/03/14 09:00:56;;;;;;;;;1.50;0.00;;;;;-145.09;100.00;59365.97;5151677;27;8831;-83
2023/03/14 09:03:23;;;;;;;;;0.00;0.00;;;;;-145.09;100.00;59365.97;5147139;27;8816;-83
2023/03/14 09:05:49;;;;;;;;;0.00;0.00;;;;;-145.09;100.00;59365.97;5152705;27;8800;-83
2023/03/14 09:08:14;;;;;;;;;0.75;0.75;;;;;-145.09;100.00;59365.97;5152818;27;8883;-82
2023/03/14 09:10:40;;;;;;;;;1.00;0.00;;;;;-145.09;100.00;59365.97;5137872;27;8819;-83
2023/03/14 09:13:05;;;;;;;;;0.00;0.00;;;;;-145.09;100.00;59365.97;5152635;27;26473;-83
2023/03/14 09:15:30;;;;;;;;;1.25;0.25;;;;;-145.09;100.00;59365.97;5130349;27;8921;-83
2023/03/14 09:17:56;;;;;;;;;0.00;0.00;;;;;-145.09;100.00;59365.97;5130933;27;34059;-83
2023/03/14 09:20:21;;;;;;;;;1.25;0.50;;;;;-145.09;100.00;59365.97;5116357;27;26827;-84
2023/03/14 09:22:46;;;;;;;;;1.25;0.00;;;;;-145.09;100.00;59365.97;5141843;27;29949;-83
2023/03/14 09:25:12;;;;;;;;;0.00;0.00;;;;;-145.09;100.00;59365.97;5117414;27;28181;-81
2023/03/14 09:27:37;;;;;;;;;1.00;0.00;;;;;-145.09;100.00;59365.97;5113358;27;8806;-84
2023/03/14 09:30:03;;;;;;;;;0.00;0.00;;;;;-145.09;100.00;59365.97;5138440;27;8809;-82
2023/03/14 09:32:31;;;;;;;;;0.25;0.00;;;;;-145.09;100.00;59365.97;5151961;27;8796;-82
2023/03/14 09:34:56;;;;;;;;;0.00;0.00;;;;;-145.09;100.00;59365.97;5133652;27;9554;-83
2023/03/14 09:37:22;;;;;;;;;0.00;0.00;;;;;-145.09;100.00;59365.97;5118559;27;8900;-82
2023/03/14 09:39:47;;;;;;;;;0.00;0.00;;;;;-145.09;100.00;59365.97;5131170;27;29902;-82
2023/03/14 09:42:16;;;;;;;;;0.00;0.00;;;;;-145.09;100.00;59365.97;5151106;27;29383;-83
2023/03/14 09:44:54;;;;;;;;;0.00;0.00;;;;;-145.09;100.00;59365.97;5130041;27;8780;-85
2023/03/14 09:47:20;;;;;;;;;3.00;0.00;;;;;-145.09;100.00;59365.97;5130368;27;8782;-82
2023/03/14 09:49:46;;;;;;;;;2.00;0.25;;;;;-145.09;100.00;59365.97;5128809;27;11114;-82
2023/03/14 09:52:15;;;;;;;;;2.75;0.00;;;;;-145.09;100.00;59365.97;5123452;27;8816;-83
2023/03/14 09:54:45;;;;;;;;;1.50;0.75;;;;;-145.09;100.00;59365.97;5130430;27;8817;-84
2023/03/14 09:57:14;;;;;;;;;0.00;0.00;;;;;-145.09;100.00;59365.97;5152432;27;8840;-82
2023/03/14 09:59:43;;;;;;;;;1.00;0.00;;;;;-145.09;100.00;59365.97;5117080;27;8798;-81
2023/03/14 10:02:16;;;;;;;;;0.00;0.00;;;;;-145.09;100.00;59365.97;5129451;27;9630;-82
2023/03/14 10:04:44;;;;;;;;;0.25;0.00;;;;;-145.09;100.00;59365.97;5144735;27;8805;-82
2023/03/14 10:07:19;;;;;;;;;1.50;0.00;;;;;-145.09;100.00;59365.97;5152415;27;8772;-83
2023/03/14 10:09:47;;;;;;;;;0.00;0.00;;;;;-145.09;100.00;59365.97;5133727;27;8788;-84
2023/03/14 10:12:13;;;;;;;;;1.00;0.00;;;;;-145.09;100.00;59365.97;5151335;27;8800;-84
2023/03/14 10:14:47;;;;;;;;;0.00;0.00;;;;;-145.09;100.00;59365.97;5152122;27;8929;-83
2023/03/14 10:17:14;;;;;;;;;0.50;0.00;;;;;-145.09;100.00;59365.97;5151075;27;8796;-83
2023/03/14 10:19:55;;;;;;;;;0.00;0.00;;;;;-145.09;100.00;59365.97;5149243;27;8784;-83
2023/03/14 10:22:24;;;;;;;;;2.50;0.00;;;;;-145.09;100.00;59365.97;5133389;27;8806;-83
2023/03/14 10:24:56;;;;;;;;;0.00;0.00;;;;;-145.09;100.00;59365.97;5132749;27;8899;-83
2023/03/14 10:27:33;;;;;;;;;0.00;0.00;;;;;-145.09;100.00;59365.97;5133873;27;8788;-83
2023/03/14 10:30:02;;;;;;;;;0.00;0.00;;;;;-145.09;100.00;59365.97;5116360;27;9534;-84
2023/03/14 10:32:41;;;;;;;;;0.25;0.00;;;;;-145.09;100.00;59365.97;5144658;27;8800;-85
2023/03/14 10:35:26;;;;;;;;;0.25;0.00;;;;;-145.09;100.00;59365.97;5142865;27;8827;-84
2023/03/14 10:38:02;;;;;;;;;0.00;0.00;;;;;-145.09;100.00;59365.97;5149635;27;23706;-84
2023/03/14 10:40:33;;;;;;;;;0.75;0.50;;;;;-145.09;100.00;59365.97;5126133;27;8759;-85
2023/03/14 10:43:00;;;;;;;;;0.25;0.00;;;;;-145.09;100.00;59365.97;5135925;27;8807;-85
2023/03/14 10:45:35;;;;;;;;;1.00;0.00;;;;;-145.09;100.00;59365.97;5154833;27;9565;-84
2023/03/14 10:48:20;;;;;;;;;0.50;0.00;;;;;-145.09;100.00;59365.97;5116582;27;8758;-87
2023/03/14 10:51:05;;;;;;;;;0.00;0.00;;;;;-145.09;100.00;59365.97;5121124;27;8790;-84
2023/03/14 10:54:00;;;;;;;;;0.00;0.00;;;;;-145.09;100.00;59365.97;5151430;27;8812;-85
2023/03/14 10:56:27;;;;;;;;;2.00;0.00;;;;;-145.09;100.00;59365.97;5135278;27;8786;-87
2023/03/14 10:58:57;;;;;;;;;0.75;0.00;;;;;-145.09;100.00;59365.97;5118168;27;8791;-86
2023/03/14 11:01:26;;;;;;;;;1.00;0.00;;;;;-145.09;100.00;59365.97;5128131;27;8790;-87
2023/03/14 11:04:39;;;;;;;;;0.00;0.00;;;;;-145.09;100.00;59365.97;5118738;27;8789;-86
2023/03/14 11:07:14;;;;;;;;;0.00;0.00;;;;;-145.09;100.00;59365.97;5135560;27;8802;-85
2023/03/14 11:09:53;;;;;;;;;0.75;0.00;;;;;-145.09;100.00;59365.97;5115968;27;8807;-85
2023/03/14 11:12:30;;;;;;;;;0.00;0.00;;;;;-145.09;100.00;59365.97;5140586;27;8808;-85
2023/03/14 11:15:02;;;;;;;;;1.50;0.00;;;;;-145.09;100.00;59365.97;5152922;27;8773;-83